createdAt,value
2023-04-21T00:00:28.036Z,8.66
2023-04-21T00:03:48.844Z,8.66
2023-04-21T00:07:05.368Z,8.68
2023-04-21T00:10:22.156Z,8.70
2023-04-21T00:13:39.830Z,8.66
2023-04-21T00:16:57.073Z,8.59
2023-04-21T00:20:16.326Z,8.52
2023-04-21T00:23:32.944Z,8.48
2023-04-21T00:26:49.312Z,8.48
2023-04-21T00:30:06.303Z,8.55
2023-04-21T00:33:25.805Z,8.58
2023-04-21T00:36:44.287Z,8.59
2023-04-21T00:40:01.339Z,8.55
2023-04-21T00:43:18.258Z,8.51
2023-04-21T00:46:37.594Z,8.50
2023-04-21T00:49:54.742Z,8.51
2023-04-21T00:53:11.605Z,8.49
2023-04-21T00:56:29.640Z,8.49
2023-04-21T00:59:46.249Z,8.51
2023-04-21T01:03:03.271Z,8.55
2023-04-21T01:06:21.327Z,8.53
2023-04-21T01:09:39.628Z,8.57
2023-04-21T01:12:57.574Z,8.57
2023-04-21T01:16:15.436Z,8.56
2023-04-21T01:19:33.182Z,8.53
2023-04-21T01:22:53.571Z,8.44
2023-04-21T01:26:10.776Z,8.46
2023-04-21T01:29:27.534Z,8.48
2023-04-21T01:32:44.484Z,8.48
2023-04-21T01:36:02.231Z,8.52
2023-04-21T01:39:18.899Z,8.57
2023-04-21T01:42:37.864Z,8.54
2023-04-21T01:45:55.007Z,8.51
2023-04-21T01:49:13.569Z,8.53
2023-04-21T01:52:30.298Z,8.55
2023-04-21T01:55:47.026Z,8.39
2023-04-21T01:59:03.644Z,8.29
2023-04-21T02:02:20.200Z,8.29
2023-04-21T02:05:37.945Z,8.34
2023-04-21T02:08:54.394Z,8.37
2023-04-21T02:12:11.295Z,8.37
2023-04-21T02:15:30.116Z,8.33
2023-04-21T02:18:46.846Z,8.24
2023-04-21T02:22:03.633Z,8.11
2023-04-21T02:25:21.206Z,8.12
2023-04-21T02:28:37.688Z,8.11
2023-04-21T02:32:01.167Z,8.07
2023-04-21T02:35:16.219Z,8.10
2023-04-21T02:38:33.977Z,8.19
2023-04-21T02:41:51.415Z,8.19
2023-04-21T02:45:08.490Z,8.22
2023-04-21T02:48:25.310Z,8.27
2023-04-21T02:51:42.392Z,8.22
2023-04-21T02:54:59.226Z,8.23
2023-04-21T02:58:15.799Z,8.25
2023-04-21T03:01:32.561Z,8.26
2023-04-21T03:04:49.963Z,8.22
2023-04-21T03:08:06.625Z,8.25
2023-04-21T03:11:24.426Z,8.25
2023-04-21T03:14:43.157Z,8.16
2023-04-21T03:17:59.978Z,8.09
2023-04-21T03:21:17.112Z,8.02
2023-04-21T03:24:33.982Z,8.02
2023-04-21T03:27:50.345Z,7.86
2023-04-21T03:31:06.962Z,7.63
2023-04-21T03:34:24.680Z,7.42
2023-04-21T03:37:41.026Z,7.37
2023-04-21T03:41:04.900Z,7.28
2023-04-21T03:44:22.319Z,7.27
2023-04-21T03:47:38.952Z,7.24
2023-04-21T03:50:55.645Z,7.16
2023-04-21T03:54:12.639Z,7.18
2023-04-21T03:57:30.984Z,7.14
2023-04-21T04:00:48.143Z,7.11
2023-04-21T04:04:05.473Z,7.15
2023-04-21T04:07:22.691Z,7.16
2023-04-21T04:10:39.330Z,7.01
2023-04-21T04:13:55.616Z,7.10
2023-04-21T04:17:12.744Z,7.13
2023-04-21T04:20:29.536Z,7.15
2023-04-21T04:23:46.329Z,7.19
2023-04-21T04:27:04.284Z,7.16
2023-04-21T04:30:22.333Z,7.21
2023-04-21T04:33:38.740Z,7.26
2023-04-21T04:36:57.913Z,7.42
2023-04-21T04:40:17.603Z,7.54
2023-04-21T04:43:34.328Z,7.61
2023-04-21T04:46:53.542Z,7.69
2023-04-21T04:50:10.174Z,7.80
2023-04-21T04:53:26.793Z,7.87
2023-04-21T04:56:44.042Z,7.89
2023-04-21T05:00:04.248Z,7.92
2023-04-21T05:03:21.829Z,8.00
2023-04-21T05:06:38.392Z,8.19
2023-04-21T05:09:55.433Z,8.36
2023-04-21T05:13:12.242Z,8.50
2023-04-21T05:16:30.096Z,8.63
2023-04-21T05:19:49.371Z,8.70
2023-04-21T05:23:04.446Z,8.82
2023-04-21T05:26:21.754Z,8.90
2023-04-21T05:29:39.300Z,9.02
2023-04-21T05:32:55.751Z,9.15
2023-04-21T05:36:15.285Z,9.37
2023-04-21T05:39:39.520Z,9.61
2023-04-21T05:42:59.213Z,9.78
2023-04-21T05:46:20.393Z,9.91
2023-04-21T05:49:41.934Z,10.04
2023-04-21T05:53:06.715Z,10.17
2023-04-21T05:56:26.723Z,10.40
2023-04-21T05:59:46.842Z,10.60
2023-04-21T06:03:07.701Z,10.66
2023-04-21T06:06:28.194Z,10.83
2023-04-21T06:09:46.197Z,11.07
2023-04-21T06:13:22.439Z,11.28
2023-04-21T06:16:58.043Z,11.40
2023-04-21T06:24:44.234Z,12.02
2023-04-21T06:28:21.776Z,12.21
2023-04-21T06:36:06.163Z,12.73
2023-04-21T06:40:07.397Z,12.97
2023-04-21T06:43:48.952Z,13.02
2023-04-21T06:47:41.877Z,13.36
2023-04-21T06:51:58.580Z,13.56
2023-04-21T06:55:36.513Z,14.10
2023-04-21T06:59:17.349Z,14.45
2023-04-21T07:03:06.573Z,14.38
2023-04-21T07:06:54.878Z,14.65
2023-04-21T07:10:22.085Z,15.11
2023-04-21T07:13:38.613Z,15.45
2023-04-21T07:16:58.735Z,15.59
2023-04-21T07:20:29.117Z,15.85
2023-04-21T07:23:57.367Z,16.12
2023-04-21T07:27:26.931Z,16.55
2023-04-21T07:30:45.835Z,17.25
2023-04-21T07:34:07.860Z,17.52
2023-04-21T07:37:26.077Z,18.22
2023-04-21T07:41:00.357Z,18.55
2023-04-21T07:44:29.139Z,18.90
2023-04-21T07:47:47.320Z,18.36
2023-04-21T07:51:12.852Z,19.20
2023-04-21T07:54:33.880Z,20.04
2023-04-21T07:57:51.880Z,20.55
2023-04-21T08:01:10.032Z,20.66
2023-04-21T08:04:32.334Z,21.15
2023-04-21T08:08:08.456Z,21.58
2023-04-21T08:11:31.815Z,21.69
2023-04-21T08:14:49.322Z,21.94
2023-04-21T08:18:05.724Z,22.43
2023-04-21T08:21:22.347Z,22.24
2023-04-21T08:24:39.141Z,22.33
2023-04-21T08:27:58.450Z,22.64
2023-04-21T08:31:21.433Z,23.06
2023-04-21T08:34:37.612Z,23.19
2023-04-21T08:38:00.862Z,22.97
2023-04-21T08:41:19.032Z,23.23
2023-04-21T08:44:36.166Z,22.88
2023-04-21T08:47:53.291Z,23.08
2023-04-21T08:51:10.650Z,22.26
2023-04-21T08:54:28.615Z,22.64
2023-04-21T08:57:45.179Z,22.87
2023-04-21T09:01:03.584Z,23.45
2023-04-21T09:04:35.183Z,22.72
2023-04-21T09:07:51.644Z,23.39
2023-04-21T09:11:14.874Z,23.42
2023-04-21T09:14:36.856Z,22.96
2023-04-21T09:17:56.602Z,23.14
2023-04-21T09:21:21.909Z,23.22
2023-04-21T09:24:38.597Z,23.17
2023-04-21T09:27:56.638Z,22.86
2023-04-21T09:31:21.126Z,22.51
2023-04-21T09:34:37.474Z,22.51
2023-04-21T09:37:56.204Z,22.35
2023-04-21T09:41:12.797Z,21.79
2023-04-21T09:44:31.903Z,21.88
2023-04-21T09:47:50.890Z,22.11
2023-04-21T09:54:29.990Z,21.88
2023-04-21T09:57:49.673Z,21.70
2023-04-21T10:01:08.432Z,21.65
2023-04-21T10:04:24.564Z,21.30
2023-04-21T10:07:41.491Z,21.33
2023-04-21T10:10:58.631Z,21.25
2023-04-21T10:14:16.589Z,21.28
2023-04-21T10:17:34.985Z,21.51
2023-04-21T10:21:07.620Z,20.73
2023-04-21T10:24:27.824Z,20.57
2023-04-21T10:27:47.606Z,20.57
2023-04-21T10:31:40.141Z,20.73
2023-04-21T10:34:56.813Z,20.91
2023-04-21T10:38:16.117Z,21.27
2023-04-21T10:41:40.009Z,21.45
2023-04-21T10:45:08.339Z,20.75
2023-04-21T10:48:26.568Z,20.92
2023-04-21T10:52:17.362Z,21.05
2023-04-21T10:55:36.876Z,20.65
2023-04-21T10:58:54.204Z,20.66
2023-04-21T11:02:11.890Z,20.46
2023-04-21T11:05:40.331Z,20.37
2023-04-21T11:09:10.332Z,20.35
2023-04-21T11:12:27.755Z,20.54
2023-04-21T11:15:44.578Z,20.25
2023-04-21T11:19:01.345Z,19.06
2023-04-21T11:22:18.186Z,19.69
2023-04-21T11:25:35.030Z,20.04
2023-04-21T11:28:56.595Z,19.78
2023-04-21T11:32:17.983Z,19.49
2023-04-21T11:35:34.901Z,18.98
2023-04-21T11:38:52.160Z,18.89
2023-04-21T11:42:08.890Z,19.10
2023-04-21T11:45:28.835Z,19.15
2023-04-21T11:48:45.425Z,19.38
2023-04-21T11:52:03.998Z,19.33
2023-04-21T11:55:25.164Z,19.32
2023-04-21T11:58:42.313Z,19.06
2023-04-21T12:02:00.298Z,18.87
2023-04-21T12:05:19.381Z,18.72
2023-04-21T12:08:36.634Z,18.69
2023-04-21T12:11:55.830Z,18.65
2023-04-21T12:15:14.490Z,18.64
2023-04-21T12:18:36.682Z,18.53
2023-04-21T12:21:53.357Z,18.52
2023-04-21T12:25:27.865Z,18.56
2023-04-21T12:28:47.563Z,18.44
2023-04-21T12:32:04.020Z,18.43
2023-04-21T12:35:21.674Z,18.23
2023-04-21T12:38:39.811Z,17.92
2023-04-21T12:41:56.206Z,17.97
2023-04-21T12:45:14.650Z,17.94
2023-04-21T12:48:31.538Z,18.06
2023-04-21T12:51:55.132Z,18.06
2023-04-21T12:55:15.158Z,18.02
2023-04-21T12:58:31.638Z,17.82
2023-04-21T13:01:48.999Z,17.63
2023-04-21T13:05:05.876Z,17.58
2023-04-21T13:08:22.410Z,17.55
2023-04-21T13:11:38.782Z,17.60
2023-04-21T13:14:55.028Z,17.56
2023-04-21T13:18:11.641Z,17.59
2023-04-21T13:21:28.735Z,17.56
2023-04-21T13:24:45.566Z,17.50
2023-04-21T13:28:02.120Z,17.51
2023-04-21T13:31:19.474Z,17.48
2023-04-21T13:34:36.699Z,17.42
2023-04-21T13:37:52.996Z,17.44
2023-04-21T13:41:09.875Z,17.29
2023-04-21T13:44:26.706Z,17.26
2023-04-21T13:47:44.090Z,17.22
2023-04-21T13:51:02.674Z,17.21
2023-04-21T13:54:19.234Z,17.24
2023-04-21T13:57:36.173Z,17.25
2023-04-21T14:00:52.589Z,17.27
2023-04-21T14:04:09.741Z,17.24
2023-04-21T14:07:26.539Z,17.25
2023-04-21T14:10:43.857Z,17.18
2023-04-21T14:17:21.543Z,17.22
2023-04-21T14:20:40.211Z,17.17
2023-04-21T14:23:56.649Z,17.18
2023-04-21T14:27:15.796Z,17.12
2023-04-21T14:30:33.050Z,17.05
2023-04-21T14:33:51.828Z,17.07
2023-04-21T14:37:08.117Z,17.10
2023-04-21T14:40:25.145Z,17.06
2023-04-21T14:43:41.410Z,17.02
2023-04-21T14:47:09.132Z,16.98
2023-04-21T14:50:17.794Z,16.92
2023-04-21T14:53:34.508Z,16.93
2023-04-21T14:56:51.216Z,16.89
2023-04-21T15:00:08.588Z,16.89
2023-04-21T15:03:25.434Z,16.89
2023-04-21T15:06:42.337Z,16.89
2023-04-21T15:09:58.794Z,16.88
2023-04-21T15:13:15.296Z,16.86
2023-04-21T15:16:32.023Z,16.82
2023-04-21T15:19:48.697Z,16.79
2023-04-21T15:23:07.755Z,16.82
2023-04-21T15:26:25.260Z,16.82
2023-04-21T15:29:42.036Z,16.77
2023-04-21T15:32:58.426Z,16.76
2023-04-21T15:36:15.373Z,16.75
2023-04-21T15:39:31.884Z,16.74
2023-04-21T15:42:48.469Z,16.73
2023-04-21T15:46:06.661Z,16.65
2023-04-21T15:49:25.716Z,16.62
2023-04-21T15:52:44.297Z,16.64
2023-04-21T15:56:00.712Z,16.59
2023-04-21T15:59:18.257Z,16.55
2023-04-21T16:02:35.753Z,16.52
2023-04-21T16:05:52.566Z,16.54
2023-04-21T16:09:10.137Z,16.51
2023-04-21T16:12:27.297Z,16.47
2023-04-21T16:15:43.995Z,16.49
2023-04-21T16:19:01.177Z,16.44
2023-04-21T16:22:21.108Z,16.43
2023-04-21T16:25:38.235Z,16.46
2023-04-21T16:28:57.869Z,16.40
2023-04-21T16:32:17.047Z,16.38
2023-04-21T16:35:34.213Z,16.35
2023-04-21T16:38:54.079Z,16.34
2023-04-21T16:42:10.649Z,16.33
2023-04-21T16:45:29.279Z,16.31
2023-04-21T16:48:48.339Z,16.26
2023-04-21T16:52:07.507Z,16.23
2023-04-21T16:55:24.319Z,16.20
2023-04-21T16:58:42.097Z,16.20
2023-04-21T17:01:58.377Z,16.17
2023-04-21T17:05:17.275Z,16.13
2023-04-21T17:08:33.639Z,16.11
2023-04-21T17:11:50.563Z,16.08
2023-04-21T17:15:10.368Z,16.04
2023-04-21T17:18:27.016Z,16.00
2023-04-21T17:21:44.788Z,15.95
2023-04-21T17:25:01.308Z,15.91
2023-04-21T17:28:17.857Z,15.88
2023-04-21T17:31:34.624Z,15.85
2023-04-21T17:34:51.168Z,15.81
2023-04-21T17:38:08.392Z,15.77
2023-04-21T17:41:25.098Z,15.75
2023-04-21T17:44:42.045Z,15.55
2023-04-21T17:48:01.673Z,15.26
2023-04-21T17:51:19.961Z,15.02
2023-04-21T17:54:37.890Z,14.77
2023-04-21T17:58:02.254Z,14.65
2023-04-21T18:01:18.804Z,14.51
2023-04-21T18:04:36.004Z,14.23
2023-04-21T18:07:54.202Z,14.07
2023-04-21T18:11:12.954Z,13.90
2023-04-21T18:14:29.474Z,13.68
2023-04-21T18:17:46.166Z,13.55
2023-04-21T18:21:05.112Z,13.44
2023-04-21T18:24:23.904Z,13.26
2023-04-21T18:27:40.914Z,13.15
2023-04-21T18:30:58.376Z,13.05
2023-04-21T18:34:15.315Z,12.98
2023-04-21T18:37:31.849Z,12.84
2023-04-21T18:40:49.685Z,12.75
2023-04-21T18:44:06.809Z,12.62
2023-04-21T18:47:23.624Z,12.44
2023-04-21T18:50:41.011Z,12.35
2023-04-21T18:53:57.786Z,12.30
2023-04-21T18:57:15.051Z,12.19
2023-04-21T19:00:32.865Z,12.05
2023-04-21T19:03:50.272Z,11.90
2023-04-21T19:07:09.011Z,11.80
2023-04-21T19:10:26.889Z,11.65
2023-04-21T19:13:43.532Z,11.63
2023-04-21T19:17:00.252Z,11.52
2023-04-21T19:20:19.915Z,11.46
2023-04-21T19:23:36.575Z,11.38
2023-04-21T19:26:53.557Z,11.31
2023-04-21T19:30:20.320Z,11.17
2023-04-21T19:33:36.992Z,11.06
2023-04-21T19:36:54.618Z,11.02
2023-04-21T19:40:12.763Z,11.03
2023-04-21T19:43:29.092Z,10.95
2023-04-21T19:46:46.845Z,10.88
2023-04-21T19:50:03.376Z,10.79
2023-04-21T19:53:19.991Z,10.70
2023-04-21T19:56:37.538Z,10.65
2023-04-21T19:59:53.960Z,10.58
2023-04-21T20:03:12.589Z,10.52
2023-04-21T20:06:29.538Z,10.46
2023-04-21T20:09:46.495Z,10.37
2023-04-21T20:13:03.074Z,10.39
2023-04-21T20:16:20.901Z,10.32
2023-04-21T20:19:39.792Z,10.23
2023-04-21T20:22:56.832Z,10.23
2023-04-21T20:26:13.433Z,10.15
2023-04-21T20:29:30.421Z,10.17
2023-04-21T20:32:46.905Z,10.03
2023-04-21T20:36:05.917Z,9.91
2023-04-21T20:39:22.848Z,9.91
2023-04-21T20:42:39.711Z,9.92
2023-04-21T20:45:56.974Z,9.82
2023-04-21T20:49:13.431Z,9.81
2023-04-21T20:52:32.257Z,9.78
2023-04-21T20:55:49.181Z,9.57
2023-04-21T20:59:06.967Z,9.46
2023-04-21T21:02:23.550Z,9.37
2023-04-21T21:05:40.909Z,9.34
2023-04-21T21:08:57.776Z,9.30
2023-04-21T21:12:16.109Z,9.26
2023-04-21T21:15:33.418Z,9.16
2023-04-21T21:18:50.326Z,9.13
2023-04-21T21:22:06.675Z,9.08
2023-04-21T21:25:23.636Z,8.94
2023-04-21T21:28:40.310Z,8.95
2023-04-21T21:31:56.798Z,8.84
2023-04-21T21:35:14.912Z,8.86
2023-04-21T21:38:31.238Z,8.65
2023-04-21T21:41:47.942Z,8.70
2023-04-21T21:45:04.449Z,8.67
2023-04-21T21:48:21.905Z,8.71
2023-04-21T21:51:38.310Z,8.64
2023-04-21T21:54:55.030Z,8.64
2023-04-21T21:58:11.508Z,8.54
2023-04-21T22:01:28.096Z,8.45
2023-04-21T22:04:44.810Z,8.55
2023-04-21T22:08:01.291Z,8.48
2023-04-21T22:11:18.031Z,8.51
2023-04-21T22:14:35.330Z,8.47
2023-04-21T22:17:51.771Z,8.34
2023-04-21T22:21:09.337Z,8.30
2023-04-21T22:24:26.958Z,8.14
2023-04-21T22:27:43.513Z,8.18
2023-04-21T22:31:00.052Z,8.14
2023-04-21T22:34:17.694Z,8.08
2023-04-21T22:37:34.388Z,8.14
2023-04-21T22:40:51.403Z,8.06
2023-04-21T22:44:08.882Z,8.02
2023-04-21T22:47:25.567Z,8.03
2023-04-21T22:50:44.426Z,7.92
2023-04-21T22:54:00.969Z,8.10
2023-04-21T22:57:19.189Z,7.94
2023-04-21T23:00:35.692Z,8.04
2023-04-21T23:03:52.658Z,8.12
2023-04-21T23:07:09.179Z,8.06
2023-04-21T23:10:25.762Z,7.91
2023-04-21T23:13:42.971Z,7.91
2023-04-21T23:17:00.159Z,7.90
2023-04-21T23:20:19.742Z,7.82
2023-04-21T23:23:34.055Z,7.71
2023-04-21T23:26:50.693Z,7.73
2023-04-21T23:30:07.448Z,7.66
2023-04-21T23:33:25.185Z,7.63
2023-04-21T23:36:42.523Z,7.60
2023-04-21T23:39:59.747Z,7.55
2023-04-21T23:43:16.607Z,7.42
2023-04-21T23:46:33.007Z,7.36
2023-04-21T23:49:52.463Z,7.36
2023-04-21T23:53:10.074Z,7.39
2023-04-21T23:56:26.960Z,7.26
2023-04-21T23:59:43.442Z,7.27
